createdAt,value
2023-03-19T00:00:43.796Z,5.9
2023-03-19T00:01:50.745Z,5.9
2023-03-19T00:02:57.687Z,5.9
2023-03-19T00:04:04.459Z,5.8
2023-03-19T00:05:11.282Z,5.8
2023-03-19T00:06:18.149Z,5.8
2023-03-19T00:07:24.975Z,5.8
2023-03-19T00:08:32.056Z,5.8
2023-03-19T00:09:39.142Z,5.8
2023-03-19T00:10:46.073Z,5.8
2023-03-19T00:11:54.529Z,5.8
2023-03-19T00:13:02.304Z,5.7
2023-03-19T00:14:09.161Z,5.7
2023-03-19T00:15:17.749Z,5.7
2023-03-19T00:16:25.697Z,5.6
2023-03-19T00:17:34.649Z,5.6
2023-03-19T00:18:41.463Z,5.6
2023-03-19T00:19:49.787Z,5.6
2023-03-19T00:20:56.912Z,5.6
2023-03-19T00:22:03.981Z,5.5
2023-03-19T00:23:10.880Z,5.5
2023-03-19T00:24:17.766Z,5.5
2023-03-19T00:25:24.576Z,5.5
2023-03-19T00:26:32.191Z,5.5
2023-03-19T00:27:39.018Z,5.5
2023-03-19T00:28:46.656Z,5.5
2023-03-19T00:29:53.554Z,5.4
2023-03-19T00:31:00.424Z,5.4
2023-03-19T00:32:13.353Z,5.4
2023-03-19T00:33:20.217Z,5.4
2023-03-19T00:34:27.082Z,5.4
2023-03-19T00:35:34.222Z,5.4
2023-03-19T00:36:42.476Z,5.4
2023-03-19T00:37:49.417Z,5.4
2023-03-19T00:38:59.236Z,5.4
2023-03-19T00:40:06.227Z,5.4
2023-03-19T00:41:13.424Z,5.4
2023-03-19T00:42:20.290Z,5.3
2023-03-19T00:43:27.610Z,5.3
2023-03-19T00:44:36.159Z,5.3
2023-03-19T00:45:43.137Z,5.3
2023-03-19T00:46:50.074Z,5.3
2023-03-19T00:47:56.976Z,5.3
2023-03-19T00:49:03.818Z,5.3
2023-03-19T00:50:10.662Z,5.3
2023-03-19T00:51:17.455Z,5.3
2023-03-19T00:52:24.332Z,5.2
2023-03-19T00:53:31.252Z,5.2
2023-03-19T00:54:43.733Z,5.2
2023-03-19T00:55:50.667Z,5.2
2023-03-19T00:56:57.470Z,5.2
2023-03-19T00:58:04.313Z,5.2
2023-03-19T00:59:11.190Z,5.1
2023-03-19T01:00:18.044Z,5.1
2023-03-19T01:01:25.022Z,5.1
2023-03-19T01:02:31.941Z,5.1
2023-03-19T01:03:38.802Z,5.1
2023-03-19T01:04:45.783Z,5.1
2023-03-19T01:05:52.686Z,5.1
2023-03-19T01:07:02.688Z,5.1
2023-03-19T01:08:09.626Z,5.1
2023-03-19T01:09:16.606Z,5.1
2023-03-19T01:10:23.496Z,5.1
2023-03-19T01:11:30.324Z,5.1
2023-03-19T01:12:37.164Z,5.1
2023-03-19T01:13:46.181Z,5.1
2023-03-19T01:14:53.107Z,5.1
2023-03-19T01:16:00.173Z,5.1
2023-03-19T01:17:06.996Z,5.1
2023-03-19T01:18:13.916Z,5.1
2023-03-19T01:19:20.708Z,5.1
2023-03-19T01:20:27.587Z,5.1
2023-03-19T01:21:34.560Z,5.1
2023-03-19T01:22:41.575Z,5.1
2023-03-19T01:23:48.496Z,5
2023-03-19T01:24:55.288Z,5
2023-03-19T01:26:02.090Z,5
2023-03-19T01:27:09.251Z,5
2023-03-19T01:28:16.072Z,5
2023-03-19T01:29:22.896Z,5
2023-03-19T01:30:29.788Z,5
2023-03-19T01:31:36.655Z,5
2023-03-19T01:32:43.477Z,5
2023-03-19T01:33:50.353Z,5
2023-03-19T01:34:57.100Z,5
2023-03-19T01:36:04.037Z,5
2023-03-19T01:37:10.989Z,5
2023-03-19T01:38:17.797Z,5
2023-03-19T01:39:24.661Z,5
2023-03-19T01:40:31.535Z,5
2023-03-19T01:41:38.245Z,5
2023-03-19T01:42:45.048Z,5
2023-03-19T01:43:56.947Z,5
2023-03-19T01:45:03.759Z,4.9
2023-03-19T01:46:10.632Z,4.9
2023-03-19T01:47:25.069Z,4.9
2023-03-19T01:48:32.018Z,4.9
2023-03-19T01:49:43.991Z,4.9
2023-03-19T01:50:54.970Z,4.9
2023-03-19T01:52:02.070Z,4.9
2023-03-19T01:53:10.751Z,4.9
2023-03-19T01:54:15.971Z,4.9
2023-03-19T01:55:22.975Z,4.9
2023-03-19T01:56:29.923Z,5
2023-03-19T01:57:36.781Z,5
2023-03-19T01:58:43.590Z,5
2023-03-19T01:59:50.450Z,5
2023-03-19T02:00:57.516Z,5
2023-03-19T02:02:04.349Z,5
2023-03-19T02:03:17.274Z,5
2023-03-19T02:04:24.189Z,5
2023-03-19T02:05:30.953Z,5
2023-03-19T02:06:37.926Z,5
2023-03-19T02:07:44.764Z,5
2023-03-19T02:08:51.846Z,5
2023-03-19T02:09:58.857Z,5
2023-03-19T02:11:05.723Z,5
2023-03-19T02:12:12.496Z,5
2023-03-19T02:13:19.356Z,5
2023-03-19T02:14:26.131Z,4.9
2023-03-19T02:15:33.040Z,4.9
2023-03-19T02:16:39.913Z,4.9
2023-03-19T02:17:46.716Z,4.9
2023-03-19T02:18:53.568Z,4.8
2023-03-19T02:20:00.364Z,4.8
2023-03-19T02:21:10.108Z,4.8
2023-03-19T02:22:17.039Z,4.7
2023-03-19T02:23:24.154Z,4.7
2023-03-19T02:24:41.192Z,4.8
2023-03-19T02:25:48.123Z,4.7
2023-03-19T02:27:00.141Z,4.8
2023-03-19T02:28:07.036Z,4.8
2023-03-19T02:29:16.460Z,4.8
2023-03-19T02:30:23.400Z,4.9
2023-03-19T02:31:30.318Z,4.8
2023-03-19T02:32:37.285Z,4.9
2023-03-19T02:33:44.182Z,4.9
2023-03-19T02:34:59.506Z,4.9
2023-03-19T02:36:06.485Z,4.8
2023-03-19T02:37:18.443Z,4.8
2023-03-19T02:38:27.991Z,4.8
2023-03-19T02:39:34.850Z,4.7
2023-03-19T02:40:41.585Z,4.7
2023-03-19T02:41:48.412Z,4.6
2023-03-19T02:42:55.366Z,4.6
2023-03-19T02:44:02.330Z,4.6
2023-03-19T02:45:09.272Z,4.6
2023-03-19T02:46:17.169Z,4.6
2023-03-19T02:47:24.038Z,4.6
2023-03-19T02:48:30.865Z,4.6
2023-03-19T02:49:37.765Z,4.6
2023-03-19T02:50:44.748Z,4.6
2023-03-19T02:51:51.657Z,4.6
2023-03-19T02:52:58.449Z,4.6
2023-03-19T02:54:05.317Z,4.6
2023-03-19T02:55:12.225Z,4.6
2023-03-19T02:56:19.184Z,4.7
2023-03-19T02:57:26.113Z,4.7
2023-03-19T02:58:32.991Z,4.7
2023-03-19T02:59:39.790Z,4.7
2023-03-19T03:00:46.757Z,4.7
2023-03-19T03:01:53.678Z,4.7
2023-03-19T03:03:00.408Z,4.8
2023-03-19T03:04:07.239Z,4.7
2023-03-19T03:05:15.539Z,4.7
2023-03-19T03:06:22.686Z,4.7
2023-03-19T03:07:38.598Z,4.7
2023-03-19T03:08:45.612Z,4.7
2023-03-19T03:09:52.528Z,4.6
2023-03-19T03:10:59.460Z,4.7
2023-03-19T03:12:06.317Z,4.7
2023-03-19T03:13:13.184Z,4.8
2023-03-19T03:14:20.042Z,4.7
2023-03-19T03:15:26.972Z,4.8
2023-03-19T03:16:33.895Z,4.8
2023-03-19T03:17:40.873Z,4.8
2023-03-19T03:18:47.644Z,4.8
2023-03-19T03:19:54.529Z,4.8
2023-03-19T03:21:01.328Z,4.8
2023-03-19T03:22:08.293Z,4.8
2023-03-19T03:23:15.102Z,4.8
2023-03-19T03:24:22.015Z,4.8
2023-03-19T03:25:28.786Z,4.8
2023-03-19T03:26:35.803Z,4.8
2023-03-19T03:27:42.634Z,4.9
2023-03-19T03:28:49.542Z,4.9
2023-03-19T03:29:56.321Z,4.9
2023-03-19T03:31:03.085Z,4.9
2023-03-19T03:32:09.942Z,4.9
2023-03-19T03:33:16.893Z,4.9
2023-03-19T03:34:23.746Z,4.9
2023-03-19T03:35:30.780Z,4.9
2023-03-19T03:36:37.635Z,5
2023-03-19T03:37:44.579Z,5
2023-03-19T03:38:54.167Z,4.9
2023-03-19T03:40:01.065Z,4.9
2023-03-19T03:41:08.161Z,4.9
2023-03-19T03:42:14.968Z,4.9
2023-03-19T03:43:21.799Z,4.9
2023-03-19T03:44:28.691Z,4.9
2023-03-19T03:45:35.579Z,5
2023-03-19T03:46:42.336Z,4.9
2023-03-19T03:47:49.184Z,5
2023-03-19T03:48:56.123Z,5
2023-03-19T03:50:02.903Z,5
2023-03-19T03:51:10.029Z,5
2023-03-19T03:52:16.762Z,5
2023-03-19T03:53:23.607Z,5
2023-03-19T03:54:30.399Z,5
2023-03-19T03:55:37.216Z,5
2023-03-19T03:56:44.041Z,5
2023-03-19T03:57:52.233Z,5
2023-03-19T03:58:59.132Z,5
2023-03-19T04:00:06.074Z,5
2023-03-19T04:01:13.431Z,5.1
2023-03-19T04:02:20.278Z,5.1
2023-03-19T04:03:27.035Z,5
2023-03-19T04:04:33.876Z,5
2023-03-19T04:05:40.688Z,5
2023-03-19T04:06:47.530Z,4.9
2023-03-19T04:07:54.333Z,4.9
2023-03-19T04:09:01.232Z,4.8
2023-03-19T04:10:08.084Z,4.8
2023-03-19T04:11:14.982Z,4.8
2023-03-19T04:12:21.908Z,4.8
2023-03-19T04:13:28.750Z,4.8
2023-03-19T04:14:35.572Z,4.8
2023-03-19T04:15:42.447Z,4.8
2023-03-19T04:16:49.455Z,4.7
2023-03-19T04:17:56.331Z,4.7
2023-03-19T04:19:03.222Z,4.7
2023-03-19T04:20:10.156Z,4.7
2023-03-19T04:21:16.986Z,4.7
2023-03-19T04:22:23.875Z,4.6
2023-03-19T04:23:30.728Z,4.6
2023-03-19T04:24:37.655Z,4.6
2023-03-19T04:25:44.575Z,4.6
2023-03-19T04:26:51.512Z,4.5
2023-03-19T04:27:58.368Z,4.5
2023-03-19T04:29:05.179Z,4.5
2023-03-19T04:30:12.012Z,4.5
2023-03-19T04:31:18.891Z,4.5
2023-03-19T04:32:25.680Z,4.5
2023-03-19T04:33:32.537Z,4.5
2023-03-19T04:34:39.385Z,4.5
2023-03-19T04:35:46.355Z,4.5
2023-03-19T04:36:53.205Z,4.5
2023-03-19T04:38:00.098Z,4.5
2023-03-19T04:39:07.041Z,4.5
2023-03-19T04:40:13.820Z,4.5
2023-03-19T04:41:20.748Z,4.5
2023-03-19T04:42:27.612Z,4.5
2023-03-19T04:43:34.461Z,4.5
2023-03-19T04:44:41.297Z,4.5
2023-03-19T04:45:48.083Z,4.5
2023-03-19T04:46:54.939Z,4.5
2023-03-19T04:48:01.807Z,4.5
2023-03-19T04:49:08.835Z,4.6
2023-03-19T04:50:15.747Z,4.7
2023-03-19T04:51:22.514Z,4.7
2023-03-19T04:52:29.374Z,4.7
2023-03-19T04:53:36.270Z,4.7
2023-03-19T04:54:43.046Z,4.7
2023-03-19T04:55:49.850Z,4.7
2023-03-19T04:56:56.702Z,4.7
2023-03-19T04:58:03.608Z,4.7
2023-03-19T04:59:10.430Z,4.7
2023-03-19T05:00:17.290Z,4.7
2023-03-19T05:01:24.416Z,4.7
2023-03-19T05:02:31.188Z,4.7
2023-03-19T05:03:38.119Z,4.7
2023-03-19T05:04:44.875Z,4.7
2023-03-19T05:05:51.666Z,4.6
2023-03-19T05:06:58.518Z,4.6
2023-03-19T05:08:05.332Z,4.6
2023-03-19T05:09:12.146Z,4.6
2023-03-19T05:10:19.018Z,4.6
2023-03-19T05:11:25.919Z,4.6
2023-03-19T05:12:32.669Z,4.6
2023-03-19T05:13:39.469Z,4.5
2023-03-19T05:14:46.267Z,4.6
2023-03-19T05:15:53.123Z,4.6
2023-03-19T05:16:59.955Z,4.6
2023-03-19T05:18:06.823Z,4.6
2023-03-19T05:19:13.853Z,4.6
2023-03-19T05:20:20.747Z,4.5
2023-03-19T05:21:27.581Z,4.6
2023-03-19T05:22:34.475Z,4.6
2023-03-19T05:23:41.442Z,4.6
2023-03-19T05:24:48.298Z,4.7
2023-03-19T05:25:55.128Z,4.7
2023-03-19T05:27:01.929Z,4.7
2023-03-19T05:28:08.907Z,4.7
2023-03-19T05:29:15.646Z,4.7
2023-03-19T05:30:22.548Z,4.7
2023-03-19T05:31:29.428Z,4.8
2023-03-19T05:32:36.228Z,4.8
2023-03-19T05:33:43.036Z,4.8
2023-03-19T05:34:50.012Z,4.8
2023-03-19T05:35:58.331Z,4.8
2023-03-19T05:37:03.604Z,4.8
2023-03-19T05:38:10.468Z,4.8
2023-03-19T05:39:17.206Z,4.8
2023-03-19T05:40:24.116Z,4.8
2023-03-19T05:41:30.920Z,4.8
2023-03-19T05:42:37.807Z,4.8
2023-03-19T05:43:44.636Z,4.8
2023-03-19T05:44:51.471Z,4.8
2023-03-19T05:45:58.314Z,4.9
2023-03-19T05:47:05.202Z,4.9
2023-03-19T05:48:13.300Z,4.8
2023-03-19T05:49:20.127Z,5
2023-03-19T05:50:26.935Z,5
2023-03-19T05:51:33.750Z,5.1
2023-03-19T05:52:40.695Z,5.1
2023-03-19T05:53:47.519Z,5.2
2023-03-19T05:54:54.317Z,5.2
2023-03-19T05:56:01.152Z,5.2
2023-03-19T05:57:08.037Z,5.2
2023-03-19T05:58:14.963Z,5.2
2023-03-19T05:59:21.785Z,5.3
2023-03-19T06:00:28.652Z,5.3
2023-03-19T06:01:35.511Z,5.3
2023-03-19T06:02:42.359Z,5.2
2023-03-19T06:03:49.269Z,5.3
2023-03-19T06:04:56.139Z,5.3
2023-03-19T06:06:02.928Z,5.4
2023-03-19T06:07:09.846Z,5.4
2023-03-19T06:08:16.681Z,5.3
2023-03-19T06:09:23.649Z,5.4
2023-03-19T06:10:30.676Z,5.5
2023-03-19T06:11:37.600Z,5.5
2023-03-19T06:12:44.403Z,5.6
2023-03-19T06:13:51.260Z,5.6
2023-03-19T06:14:58.033Z,5.7
2023-03-19T06:16:05.052Z,5.7
2023-03-19T06:17:11.813Z,5.8
2023-03-19T06:18:18.625Z,5.8
2023-03-19T06:19:25.497Z,5.9
2023-03-19T06:20:32.724Z,5.8
2023-03-19T06:21:39.200Z,5.9
2023-03-19T06:22:46.040Z,6
2023-03-19T06:23:52.835Z,6
2023-03-19T06:24:59.685Z,6
2023-03-19T06:26:06.716Z,6
2023-03-19T06:27:13.751Z,6.1
2023-03-19T06:28:20.732Z,6.2
2023-03-19T06:29:27.528Z,6.2
2023-03-19T06:30:34.564Z,6.3
2023-03-19T06:31:41.227Z,6.3
2023-03-19T06:32:48.135Z,6.4
2023-03-19T06:33:58.671Z,6.5
2023-03-19T06:35:05.717Z,6.5
2023-03-19T06:36:12.735Z,6.6
2023-03-19T06:37:19.575Z,6.6
2023-03-19T06:38:26.376Z,6.7
2023-03-19T06:39:33.216Z,6.7
2023-03-19T06:40:40.196Z,6.7
2023-03-19T06:41:47.082Z,6.7
2023-03-19T06:42:54.013Z,6.8
2023-03-19T06:44:00.826Z,6.9
2023-03-19T06:45:07.708Z,7.1
2023-03-19T06:46:14.797Z,7.1
2023-03-19T06:47:21.746Z,7.2
2023-03-19T06:48:28.634Z,7.2
2023-03-19T06:49:35.474Z,7.2
2023-03-19T06:50:42.330Z,7.3
2023-03-19T06:51:49.228Z,7.4
2023-03-19T06:52:56.115Z,7.5
2023-03-19T06:54:02.964Z,7.5
2023-03-19T06:55:09.799Z,7.5
2023-03-19T06:56:16.625Z,7.6
2023-03-19T06:57:23.552Z,7.7
2023-03-19T06:58:30.451Z,7.7
2023-03-19T06:59:37.315Z,7.8
2023-03-19T07:00:44.199Z,7.9
2023-03-19T07:01:50.884Z,8
2023-03-19T07:02:57.714Z,8
2023-03-19T07:04:04.600Z,7.9
2023-03-19T07:05:11.345Z,7.8
2023-03-19T07:06:18.251Z,7.8
2023-03-19T07:07:25.076Z,7.9
2023-03-19T07:08:31.909Z,8
2023-03-19T07:09:38.833Z,7.9
2023-03-19T07:10:45.771Z,7.9
2023-03-19T07:11:52.581Z,8.1
2023-03-19T07:12:59.405Z,8.1
2023-03-19T07:14:06.240Z,8.2
2023-03-19T07:15:13.136Z,8.3
2023-03-19T07:16:20.005Z,8.4
2023-03-19T07:17:26.803Z,8.5
2023-03-19T07:18:33.597Z,8.7
2023-03-19T07:19:40.424Z,8.8
2023-03-19T07:20:47.258Z,8.6
2023-03-19T07:21:54.083Z,8.5
2023-03-19T07:23:00.846Z,8.5
2023-03-19T07:24:07.685Z,8.8
2023-03-19T07:25:14.541Z,9
2023-03-19T07:26:22.172Z,9
2023-03-19T07:27:29.087Z,9.1
2023-03-19T07:28:36.087Z,9.2
2023-03-19T07:29:42.882Z,9.2
2023-03-19T07:30:52.441Z,9.3
2023-03-19T07:31:59.531Z,9.2
2023-03-19T07:33:11.193Z,9.1
2023-03-19T07:34:21.220Z,9.2
2023-03-19T07:35:28.156Z,9.4
2023-03-19T07:36:35.013Z,9.4
2023-03-19T07:37:42.092Z,9.5
2023-03-19T07:38:49.011Z,9.5
2023-03-19T07:39:57.689Z,9.5
2023-03-19T07:41:05.427Z,9.6
2023-03-19T07:42:12.331Z,9.9
2023-03-19T07:43:19.256Z,9.7
2023-03-19T07:44:26.101Z,9.8
2023-03-19T07:45:33.027Z,9.7
2023-03-19T07:46:39.858Z,9.9
2023-03-19T07:47:48.607Z,9.8
2023-03-19T07:48:53.594Z,9.7
2023-03-19T07:50:00.417Z,9.5
2023-03-19T07:51:07.417Z,9.6
2023-03-19T07:52:14.333Z,9.6
2023-03-19T07:53:21.082Z,9.6
2023-03-19T07:54:27.934Z,9.7
2023-03-19T07:55:36.638Z,9.9
2023-03-19T07:56:41.724Z,10
2023-03-19T07:57:48.520Z,10.1
2023-03-19T07:58:55.344Z,9.9
2023-03-19T08:00:02.157Z,9.9
2023-03-19T08:01:09.243Z,10.1
2023-03-19T08:02:16.174Z,10.1
2023-03-19T08:03:23.004Z,10.1
2023-03-19T08:04:29.771Z,10.2
2023-03-19T08:05:36.541Z,10.4
2023-03-19T08:06:43.306Z,10.5
2023-03-19T08:07:50.051Z,10.7
2023-03-19T08:08:56.889Z,10.7
2023-03-19T08:10:03.754Z,10.7
2023-03-19T08:11:10.692Z,10.9
2023-03-19T08:12:17.526Z,10.8
2023-03-19T08:13:24.368Z,10.6
2023-03-19T08:14:31.335Z,10.6
2023-03-19T08:15:38.136Z,10.8
2023-03-19T08:16:44.954Z,10.6
2023-03-19T08:17:51.721Z,10.8
2023-03-19T08:19:03.676Z,10.8
2023-03-19T08:20:10.494Z,10.6
2023-03-19T08:21:17.348Z,10.7
2023-03-19T08:22:24.252Z,10.8
2023-03-19T08:23:31.601Z,10.9
2023-03-19T08:24:38.518Z,10.9
2023-03-19T08:25:45.396Z,11.2
2023-03-19T08:26:52.194Z,11
2023-03-19T08:27:59.144Z,11
2023-03-19T08:29:06.092Z,10.9
2023-03-19T08:30:12.883Z,11
2023-03-19T08:31:19.834Z,11.4
2023-03-19T08:32:26.631Z,11.6
2023-03-19T08:33:33.473Z,11.6
2023-03-19T08:34:40.349Z,11.5
2023-03-19T08:35:47.227Z,11.2
2023-03-19T08:36:53.979Z,11.2
2023-03-19T08:38:00.789Z,11.3
2023-03-19T08:39:07.599Z,11.1
2023-03-19T08:40:14.396Z,11.4
2023-03-19T08:41:21.266Z,11.6
2023-03-19T08:42:28.092Z,11.5
2023-03-19T08:43:34.859Z,11.6
2023-03-19T08:44:41.772Z,11.7
2023-03-19T08:45:48.616Z,11.5
2023-03-19T08:46:55.409Z,11.4
2023-03-19T08:48:02.385Z,11.5
2023-03-19T08:49:09.196Z,11.4
2023-03-19T08:50:16.022Z,11.2
2023-03-19T08:51:22.956Z,11.2
2023-03-19T08:52:29.769Z,11.3
2023-03-19T08:53:36.528Z,11.4
2023-03-19T08:54:43.347Z,11.1
2023-03-19T08:55:50.313Z,11.3
2023-03-19T08:56:57.221Z,11.4
2023-03-19T08:58:04.130Z,11.6
2023-03-19T08:59:11.121Z,11.6
2023-03-19T09:00:17.878Z,11.6
2023-03-19T09:01:24.935Z,11.5
2023-03-19T09:02:31.679Z,11.6
2023-03-19T09:03:38.545Z,11.7
2023-03-19T09:04:45.557Z,11.8
2023-03-19T09:05:52.380Z,12.1
2023-03-19T09:06:59.154Z,12
2023-03-19T09:08:06.046Z,12.1
2023-03-19T09:09:12.949Z,12.1
2023-03-19T09:10:19.786Z,12
2023-03-19T09:11:26.650Z,12
2023-03-19T09:12:33.484Z,12.2
2023-03-19T09:13:40.383Z,12.1
2023-03-19T09:14:47.353Z,12.1
2023-03-19T09:15:54.229Z,11.9
2023-03-19T09:17:01.204Z,12.1
2023-03-19T09:18:08.066Z,12.4
2023-03-19T09:19:15.016Z,12.5
2023-03-19T09:20:21.866Z,12.6
2023-03-19T09:21:28.674Z,12.5
2023-03-19T09:22:35.483Z,12.2
2023-03-19T09:23:42.265Z,12.4
2023-03-19T09:24:49.126Z,12.5
2023-03-19T09:25:56.084Z,12.7
2023-03-19T09:27:02.878Z,12.5
2023-03-19T09:28:09.715Z,12.7
2023-03-19T09:29:16.497Z,12.8
2023-03-19T09:30:23.409Z,12.7
2023-03-19T09:31:30.234Z,12.7
2023-03-19T09:32:37.011Z,12.6
2023-03-19T09:33:43.880Z,12.8
2023-03-19T09:34:50.691Z,12.5
2023-03-19T09:35:57.484Z,12.7
2023-03-19T09:37:04.453Z,12.8
2023-03-19T09:38:11.343Z,12.9
2023-03-19T09:39:18.139Z,13
2023-03-19T09:40:24.927Z,13
2023-03-19T09:41:36.789Z,13.2
2023-03-19T09:42:51.538Z,13.1
2023-03-19T09:44:01.678Z,13
2023-03-19T09:45:13.683Z,12.8
2023-03-19T09:46:22.590Z,12.8
2023-03-19T09:47:27.397Z,13
2023-03-19T09:48:37.216Z,13.1
2023-03-19T09:49:44.069Z,13.2
2023-03-19T09:50:50.883Z,13.3
2023-03-19T09:51:57.723Z,13.4
2023-03-19T09:53:14.696Z,13.4
2023-03-19T09:54:21.508Z,13.3
2023-03-19T09:55:36.203Z,13.1
2023-03-19T09:56:50.632Z,13.3
2023-03-19T09:57:57.607Z,13.3
2023-03-19T09:59:04.496Z,13.3
2023-03-19T10:00:11.272Z,13.4
2023-03-19T10:01:21.181Z,13.4
2023-03-19T10:02:28.007Z,13.7
2023-03-19T10:03:34.893Z,13.7
2023-03-19T10:04:46.748Z,13.7
2023-03-19T10:05:58.628Z,13.8
2023-03-19T10:07:12.948Z,14.2
2023-03-19T10:08:25.526Z,14.2
2023-03-19T10:09:37.360Z,14.2
2023-03-19T10:10:49.236Z,14.3
2023-03-19T10:12:04.047Z,14.4
2023-03-19T10:13:18.529Z,14.1
2023-03-19T10:14:30.440Z,14
2023-03-19T10:15:47.552Z,14.1
2023-03-19T10:16:54.336Z,13.9
2023-03-19T10:18:01.252Z,14
2023-03-19T10:19:18.216Z,14.3
2023-03-19T10:20:25.153Z,14.2
2023-03-19T10:21:32.748Z,14.3
2023-03-19T10:22:47.600Z,14.5
2023-03-19T10:23:56.764Z,14.4
2023-03-19T10:25:06.920Z,14.2
2023-03-19T10:26:13.829Z,14
2023-03-19T10:27:20.721Z,14.2
2023-03-19T10:28:27.537Z,14.3
2023-03-19T10:29:34.450Z,14.3
2023-03-19T10:30:41.345Z,14.4
2023-03-19T10:31:48.408Z,14.4
2023-03-19T10:33:00.362Z,14.6
2023-03-19T10:34:12.227Z,14.9
2023-03-19T10:35:26.866Z,15.2
2023-03-19T10:36:38.955Z,15.2
2023-03-19T10:37:45.734Z,15.2
2023-03-19T10:38:52.600Z,15
2023-03-19T10:40:00.373Z,15
2023-03-19T10:41:07.192Z,14.8
2023-03-19T10:42:22.087Z,15
2023-03-19T10:43:39.036Z,14.9
2023-03-19T10:44:45.855Z,15
2023-03-19T10:46:00.349Z,15.1
2023-03-19T10:47:07.252Z,15.1
2023-03-19T10:48:14.225Z,15.2
2023-03-19T10:49:21.228Z,15.3
2023-03-19T10:50:28.030Z,15.3
2023-03-19T10:51:37.951Z,15.5
2023-03-19T10:52:51.591Z,15.3
2023-03-19T10:54:02.177Z,15.3
2023-03-19T10:55:11.173Z,15.2
2023-03-19T10:56:21.067Z,15.1
2023-03-19T10:57:27.801Z,15.1
2023-03-19T10:58:37.571Z,15.4
2023-03-19T10:59:44.373Z,15.4
2023-03-19T11:00:51.357Z,15.7
2023-03-19T11:02:00.692Z,15.6
2023-03-19T11:03:17.657Z,15.7
2023-03-19T11:04:32.416Z,15.7
2023-03-19T11:05:39.202Z,15.7
2023-03-19T11:06:46.090Z,15.5
2023-03-19T11:07:53.053Z,15.3
2023-03-19T11:09:01.722Z,15.4
2023-03-19T11:10:11.381Z,15.5
2023-03-19T11:11:18.162Z,15.4
2023-03-19T11:12:30.064Z,15.5
2023-03-19T11:13:39.773Z,15.8
2023-03-19T11:14:46.622Z,15.8
2023-03-19T11:15:53.505Z,15.8
2023-03-19T11:17:02.241Z,15.7
2023-03-19T11:18:09.847Z,15.6
2023-03-19T11:19:24.764Z,15.5
2023-03-19T11:20:31.570Z,15.7
2023-03-19T11:21:38.347Z,15.7
2023-03-19T11:22:45.216Z,15.8
2023-03-19T11:23:51.999Z,16
2023-03-19T11:25:03.957Z,15.8
2023-03-19T11:26:20.895Z,15.9
2023-03-19T11:27:27.775Z,15.5
2023-03-19T11:28:34.760Z,15.6
2023-03-19T11:29:41.659Z,15.6
2023-03-19T11:30:48.524Z,15.7
2023-03-19T11:32:15.128Z,15.8
2023-03-19T11:33:20.192Z,15.5
2023-03-19T11:34:34.926Z,15.5
2023-03-19T11:35:46.901Z,15.4
2023-03-19T11:37:03.828Z,15.4
2023-03-19T11:38:18.784Z,15.4
2023-03-19T11:39:28.526Z,15.3
2023-03-19T11:40:40.362Z,15.4
2023-03-19T11:41:50.574Z,15.4
2023-03-19T11:43:07.599Z,15.5
2023-03-19T11:44:19.511Z,15.7
2023-03-19T11:45:38.559Z,15.7
2023-03-19T11:46:51.349Z,15.8
2023-03-19T11:47:58.157Z,15.6
2023-03-19T11:49:15.074Z,15.7
2023-03-19T11:50:27.772Z,15.8
2023-03-19T11:51:44.850Z,15.9
2023-03-19T11:53:02.139Z,16
2023-03-19T11:54:11.506Z,16
2023-03-19T11:55:28.454Z,16
2023-03-19T11:56:40.368Z,15.9
2023-03-19T11:57:47.248Z,15.9
2023-03-19T11:59:04.115Z,16
2023-03-19T12:00:21.115Z,16.1
2023-03-19T12:01:33.010Z,16.1
2023-03-19T12:02:42.678Z,16.1
2023-03-19T12:03:52.347Z,16.2
2023-03-19T12:05:09.203Z,16
2023-03-19T12:06:26.155Z,15.9
2023-03-19T12:07:43.179Z,16
2023-03-19T12:08:55.134Z,16
2023-03-19T12:10:09.556Z,16.1
2023-03-19T12:11:21.443Z,16.3
2023-03-19T12:12:36.176Z,16.3
2023-03-19T12:13:51.032Z,16.1
2023-03-19T12:15:05.819Z,16.2
2023-03-19T12:16:20.436Z,16.1
2023-03-19T12:17:37.370Z,15.9
2023-03-19T12:18:47.056Z,16.2
2023-03-19T12:19:56.485Z,16.2
2023-03-19T12:21:11.233Z,16.4
2023-03-19T12:22:20.694Z,16.3
2023-03-19T12:23:36.034Z,16.4
2023-03-19T12:24:47.309Z,16.3
2023-03-19T12:25:59.372Z,16.4
2023-03-19T12:27:13.713Z,16.5
2023-03-19T12:28:25.624Z,16.6
2023-03-19T12:29:38.949Z,16.5
2023-03-19T12:30:50.830Z,16.6
2023-03-19T12:32:00.713Z,16.8
2023-03-19T12:33:10.190Z,16.9
2023-03-19T12:34:19.597Z,16.9
2023-03-19T12:35:31.753Z,16.8
2023-03-19T12:36:38.554Z,16.8
2023-03-19T12:37:50.617Z,16.6
2023-03-19T12:39:07.517Z,16.8
2023-03-19T12:40:17.464Z,16.9
2023-03-19T12:41:34.504Z,16.9
2023-03-19T12:42:41.368Z,17
2023-03-19T12:43:48.224Z,17.1
2023-03-19T12:45:00.165Z,17
2023-03-19T12:46:07.407Z,16.9
2023-03-19T12:47:19.520Z,16.8
2023-03-19T12:48:29.276Z,16.8
2023-03-19T12:49:36.098Z,16.7
2023-03-19T12:50:45.753Z,16.8
2023-03-19T12:51:52.666Z,16.9
2023-03-19T12:53:09.621Z,16.9
2023-03-19T12:54:21.488Z,16.9
2023-03-19T12:55:28.478Z,17
2023-03-19T12:56:42.992Z,17
2023-03-19T12:57:55.939Z,17
2023-03-19T12:59:07.891Z,17
2023-03-19T13:00:15.749Z,16.8
2023-03-19T13:01:26.173Z,16.8
2023-03-19T13:02:33.243Z,16.9
2023-03-19T13:03:50.080Z,16.8
2023-03-19T13:05:04.784Z,16.9
2023-03-19T13:06:21.715Z,16.8
2023-03-19T13:07:31.552Z,16.8
2023-03-19T13:08:46.492Z,16.8
2023-03-19T13:10:03.560Z,16.8
2023-03-19T13:11:10.499Z,16.8
2023-03-19T13:12:17.275Z,16.9
2023-03-19T13:13:26.745Z,16.8
2023-03-19T13:14:43.679Z,16.8
2023-03-19T13:15:55.698Z,16.8
2023-03-19T13:17:02.387Z,16.6
2023-03-19T13:18:14.269Z,16.4
2023-03-19T13:19:26.204Z,16.4
2023-03-19T13:20:43.363Z,16.4
2023-03-19T13:21:57.904Z,16.6
2023-03-19T13:23:04.657Z,16.7
2023-03-19T13:24:11.546Z,16.8
2023-03-19T13:25:28.489Z,16.8
2023-03-19T13:26:38.053Z,16.9
2023-03-19T13:27:44.844Z,16.9
2023-03-19T13:28:56.668Z,16.9
2023-03-19T13:30:09.589Z,16.8
2023-03-19T13:31:16.428Z,16.9
2023-03-19T13:32:23.145Z,16.7
2023-03-19T13:33:40.180Z,16.8
2023-03-19T13:34:47.092Z,16.9
2023-03-19T13:35:54.053Z,16.8
2023-03-19T13:37:00.917Z,16.7
2023-03-19T13:38:07.964Z,16.7
2023-03-19T13:39:19.184Z,16.7
2023-03-19T13:40:29.095Z,16.8
2023-03-19T13:41:41.000Z,16.8
2023-03-19T13:42:47.823Z,16.5
2023-03-19T13:43:54.791Z,16.5
2023-03-19T13:45:03.659Z,16.6
2023-03-19T13:46:13.561Z,16.7
2023-03-19T13:47:20.368Z,16.7
2023-03-19T13:48:30.100Z,16.8
2023-03-19T13:49:39.931Z,16.6
2023-03-19T13:50:46.781Z,16.5
2023-03-19T13:52:01.560Z,16.7
2023-03-19T13:53:13.433Z,16.7
2023-03-19T13:54:25.386Z,16.8
2023-03-19T13:55:34.963Z,16.8
2023-03-19T13:56:51.985Z,16.7
2023-03-19T13:58:01.974Z,16.6
2023-03-19T13:59:16.690Z,16.6
2023-03-19T14:00:26.154Z,16.7
2023-03-19T14:01:43.034Z,16.7
2023-03-19T14:02:52.014Z,16.7
2023-03-19T14:03:59.081Z,16.7
2023-03-19T14:05:09.026Z,16.6
2023-03-19T14:06:21.187Z,16.6
2023-03-19T14:07:34.302Z,16.5
2023-03-19T14:08:44.574Z,16.5
2023-03-19T14:09:52.687Z,16.6
2023-03-19T14:11:02.675Z,16.5
2023-03-19T14:12:09.696Z,16.6
2023-03-19T14:13:21.657Z,16.6
2023-03-19T14:14:28.598Z,16.6
2023-03-19T14:15:38.607Z,16.6
2023-03-19T14:16:45.543Z,16.6
2023-03-19T14:17:52.344Z,16.5
2023-03-19T14:19:05.063Z,16.5
2023-03-19T14:20:15.738Z,16.6
2023-03-19T14:21:23.375Z,16.6
2023-03-19T14:22:35.364Z,16.8
2023-03-19T14:23:52.762Z,16.7
2023-03-19T14:24:59.151Z,16.7
2023-03-19T14:26:16.086Z,16.8
2023-03-19T14:27:22.873Z,16.7
2023-03-19T14:28:32.184Z,16.6
2023-03-19T14:29:44.096Z,16.6
2023-03-19T14:30:50.913Z,16.5
2023-03-19T14:31:57.775Z,16.5
2023-03-19T14:33:07.749Z,16.6
2023-03-19T14:34:19.907Z,16.7
2023-03-19T14:35:36.769Z,16.6
2023-03-19T14:36:43.556Z,16.7
2023-03-19T14:38:00.460Z,16.8
2023-03-19T14:39:07.261Z,16.6
2023-03-19T14:40:21.623Z,16.5
2023-03-19T14:41:33.438Z,16.4
2023-03-19T14:42:40.231Z,16.4
2023-03-19T14:43:49.958Z,16.4
2023-03-19T14:45:04.602Z,16.5
2023-03-19T14:46:11.427Z,16.5
2023-03-19T14:47:28.420Z,16.5
2023-03-19T14:48:37.792Z,16.4
2023-03-19T14:49:54.785Z,16.3
2023-03-19T14:51:11.681Z,16.4
2023-03-19T14:52:28.655Z,16.4
2023-03-19T14:53:35.532Z,16.3
2023-03-19T14:54:42.329Z,16.4
2023-03-19T14:55:51.709Z,16.4
2023-03-19T14:56:58.567Z,16.4
2023-03-19T14:58:10.345Z,16.3
2023-03-19T14:59:17.232Z,16.3
2023-03-19T15:00:24.021Z,16.3
2023-03-19T15:01:31.090Z,16.3
2023-03-19T15:02:37.809Z,16.2
2023-03-19T15:03:44.662Z,16.2
2023-03-19T15:04:51.621Z,16.3
2023-03-19T15:05:58.274Z,16.3
2023-03-19T15:07:05.114Z,16.3
2023-03-19T15:08:11.976Z,16.3
2023-03-19T15:09:18.766Z,16.3
2023-03-19T15:10:33.480Z,16.1
2023-03-19T15:11:48.189Z,16.1
2023-03-19T15:12:57.742Z,16.1
2023-03-19T15:14:09.594Z,16.2
2023-03-19T15:15:24.365Z,16.2
2023-03-19T15:16:39.078Z,16.2
2023-03-19T15:18:02.863Z,16.1
2023-03-19T15:19:05.661Z,16.1
2023-03-19T15:20:12.431Z,16
2023-03-19T15:21:21.891Z,16
2023-03-19T15:22:28.760Z,16
2023-03-19T15:23:35.555Z,16.1
2023-03-19T15:24:42.391Z,16
2023-03-19T15:25:49.179Z,15.9
2023-03-19T15:27:01.238Z,15.9
2023-03-19T15:28:18.599Z,15.9
2023-03-19T15:29:25.327Z,16
2023-03-19T15:30:52.161Z,16
2023-03-19T15:31:51.413Z,15.9
2023-03-19T15:33:03.708Z,15.9
2023-03-19T15:33:58.298Z,15.8
2023-03-19T15:35:05.221Z,15.8